createdAt,value
2022-09-06T00:00:30.956Z,100375.75
2022-09-06T00:02:59.761Z,100377.50
2022-09-06T00:05:28.038Z,100376.16
2022-09-06T00:07:56.145Z,100379.22
2022-09-06T00:10:26.003Z,100374.75
2022-09-06T00:12:54.464Z,100379.63
2022-09-06T00:15:23.543Z,100380.88
2022-09-06T00:17:51.796Z,100387.28
2022-09-06T00:20:20.188Z,100379.34
2022-09-06T00:22:48.507Z,100377.25
2022-09-06T00:25:16.699Z,100368.34
2022-09-06T00:27:46.359Z,100390.84
2022-09-06T00:30:14.752Z,100383.84
2022-09-06T00:32:43.029Z,100386.78
2022-09-06T00:35:11.342Z,100383.22
2022-09-06T00:37:39.511Z,100379.50
2022-09-06T00:40:09.050Z,100389.78
2022-09-06T00:42:37.127Z,100395.34
2022-09-06T00:45:09.258Z,100391.09
2022-09-06T00:47:39.900Z,100395.50
2022-09-06T00:50:10.577Z,100391.75
2022-09-06T00:52:40.814Z,100389.75
2022-09-06T00:55:09.779Z,100383.72
2022-09-06T00:57:38.347Z,100385.94
2022-09-06T01:00:11.561Z,100389.44
2022-09-06T01:02:40.256Z,100393.16
2022-09-06T01:05:09.289Z,100390.41
2022-09-06T01:07:50.169Z,100392.03
2022-09-06T01:10:44.121Z,100387.34
2022-09-06T01:13:23.811Z,100388.50
2022-09-06T01:16:00.784Z,100387.13
2022-09-06T01:18:40.913Z,100395.13
2022-09-06T01:21:25.843Z,100391.06
2022-09-06T01:24:11.056Z,100397.84
2022-09-06T01:27:21.938Z,100397.50
2022-09-06T01:29:53.049Z,100396.13
2022-09-06T01:32:29.525Z,100383.47
2022-09-06T01:35:07.004Z,100380.09
2022-09-06T01:37:35.484Z,100387.34
2022-09-06T01:40:03.979Z,100391.31
2022-09-06T01:42:34.762Z,100365.34
2022-09-06T01:45:07.839Z,100371.56
2022-09-06T01:47:45.099Z,100362.88
2022-09-06T01:50:31.214Z,100363.50
2022-09-06T01:53:12.800Z,100361.97
2022-09-06T01:55:48.916Z,100359.72
2022-09-06T01:58:40.858Z,100354.38
2022-09-06T02:01:21.311Z,100349.34
2022-09-06T02:03:57.274Z,100348.38
2022-09-06T02:06:29.579Z,100348.78
2022-09-06T02:09:04.653Z,100338.88
2022-09-06T02:11:38.962Z,100338.19
2022-09-06T02:14:11.566Z,100349.94
2022-09-06T02:16:45.593Z,100342.16
2022-09-06T02:19:19.273Z,100345.53
2022-09-06T02:21:49.043Z,100333.88
2022-09-06T02:24:21.108Z,100342.16
2022-09-06T02:26:50.074Z,100345.03
2022-09-06T02:29:19.691Z,100339.94
2022-09-06T02:31:54.778Z,100336.44
2022-09-06T02:34:23.611Z,100351.78
2022-09-06T02:36:52.599Z,100349.94
2022-09-06T02:39:21.070Z,100351.38
2022-09-06T02:41:49.971Z,100343.69
2022-09-06T02:44:17.955Z,100345.69
2022-09-06T02:46:46.034Z,100348.34
2022-09-06T02:49:15.479Z,100340.88
2022-09-06T02:51:43.507Z,100334.75
2022-09-06T02:54:11.812Z,100338.94
2022-09-06T02:56:40.113Z,100342.84
2022-09-06T02:59:08.422Z,100346.38
2022-09-06T03:01:36.590Z,100348.25
2022-09-06T03:04:04.904Z,100349.78
2022-09-06T03:06:34.960Z,100354.50
2022-09-06T03:09:03.335Z,100354.78
2022-09-06T03:11:31.566Z,100358.38
2022-09-06T03:13:59.955Z,100358.63
2022-09-06T03:16:28.803Z,100367.25
2022-09-06T03:18:57.592Z,100368.97
2022-09-06T03:21:25.668Z,100373.97
2022-09-06T03:23:55.455Z,100373.41
2022-09-06T03:26:23.541Z,100368.31
2022-09-06T03:28:51.905Z,100373.16
2022-09-06T03:31:20.234Z,100373.72
2022-09-06T03:33:48.387Z,100373.63
2022-09-06T03:36:17.274Z,100372.66
2022-09-06T03:38:45.465Z,100371.53
2022-09-06T03:41:14.969Z,100372.66
2022-09-06T03:43:43.305Z,100352.38
2022-09-06T03:46:11.445Z,100371.41
2022-09-06T03:48:39.904Z,100374.28
2022-09-06T03:51:08.059Z,100360.38
2022-09-06T03:53:36.269Z,100375.28
2022-09-06T03:56:05.366Z,100372.50
2022-09-06T03:58:35.253Z,100380.00
2022-09-06T04:01:06.212Z,100363.75
2022-09-06T04:03:35.061Z,100388.44
2022-09-06T04:06:03.666Z,100367.38
2022-09-06T04:08:32.013Z,100387.63
2022-09-06T04:11:00.863Z,100391.78
2022-09-06T04:13:30.226Z,100393.19
2022-09-06T04:16:00.083Z,100397.78
2022-09-06T04:18:28.405Z,100397.63
2022-09-06T04:20:57.196Z,100404.00
2022-09-06T04:23:26.817Z,100394.28
2022-09-06T04:25:57.034Z,100406.78
2022-09-06T04:28:27.148Z,100395.97
2022-09-06T04:30:58.128Z,100399.25
2022-09-06T04:33:31.468Z,100396.53
2022-09-06T04:36:01.516Z,100407.03
2022-09-06T04:38:31.605Z,100393.72
2022-09-06T04:40:59.807Z,100396.75
2022-09-06T04:43:28.023Z,100388.38
2022-09-06T04:45:56.378Z,100395.97
2022-09-06T04:48:24.568Z,100385.59
2022-09-06T04:50:54.210Z,100389.03
2022-09-06T04:53:22.457Z,100387.09
2022-09-06T04:55:50.673Z,100387.84
2022-09-06T04:58:18.743Z,100390.28
2022-09-06T05:00:48.426Z,100358.78
2022-09-06T05:03:16.796Z,100391.63
2022-09-06T05:05:44.856Z,100386.53
2022-09-06T05:08:14.361Z,100380.66
2022-09-06T05:10:42.559Z,100388.53
2022-09-06T05:13:10.704Z,100390.41
2022-09-06T05:15:39.039Z,100386.69
2022-09-06T05:18:07.396Z,100383.81
2022-09-06T05:20:35.394Z,100380.88
2022-09-06T05:23:03.425Z,100383.59
2022-09-06T05:25:33.011Z,100382.34
2022-09-06T05:28:01.027Z,100376.94
2022-09-06T05:30:29.218Z,100376.84
2022-09-06T05:32:57.408Z,100385.13
2022-09-06T05:35:25.794Z,100383.00
2022-09-06T05:37:54.254Z,100377.16
2022-09-06T05:40:22.839Z,100378.63
2022-09-06T05:42:52.396Z,100377.78
2022-09-06T05:45:20.493Z,100381.78
2022-09-06T05:47:48.661Z,100381.16
2022-09-06T05:50:16.814Z,100385.09
2022-09-06T05:52:44.908Z,100382.16
2022-09-06T05:55:13.034Z,100373.03
2022-09-06T05:57:41.139Z,100369.94
2022-09-06T06:00:12.638Z,100371.50
2022-09-06T06:02:41.104Z,100372.94
2022-09-06T06:05:10.010Z,100378.16
2022-09-06T06:07:38.251Z,100374.03
2022-09-06T06:10:07.270Z,100369.13
2022-09-06T06:12:35.439Z,100365.69
2022-09-06T06:15:05.805Z,100360.06
2022-09-06T06:17:35.742Z,100361.41
2022-09-06T06:20:04.535Z,100344.41
2022-09-06T06:22:33.038Z,100340.84
2022-09-06T06:25:01.085Z,100372.94
2022-09-06T06:27:29.242Z,100373.06
2022-09-06T06:29:57.356Z,100377.50
2022-09-06T06:32:25.469Z,100374.19
2022-09-06T06:34:54.964Z,100365.59
2022-09-06T06:37:23.101Z,100370.78
2022-09-06T06:39:51.258Z,100369.75
2022-09-06T06:42:19.419Z,100362.78
2022-09-06T06:44:47.437Z,100365.22
2022-09-06T06:47:15.458Z,100357.84
2022-09-06T06:49:43.476Z,100332.19
2022-09-06T06:52:13.046Z,100362.81
2022-09-06T06:54:41.538Z,100362.50
2022-09-06T06:57:10.520Z,100359.88
2022-09-06T06:59:40.145Z,100360.91
2022-09-06T07:02:08.608Z,100367.88
2022-09-06T07:04:36.847Z,100372.84
2022-09-06T07:12:43.155Z,100364.66
2022-09-06T07:15:11.583Z,100361.56
2022-09-06T07:17:39.934Z,100366.66
2022-09-06T07:22:41.572Z,100361.22
2022-09-06T07:25:14.502Z,100364.59
2022-09-06T07:30:17.068Z,100361.09
2022-09-06T07:32:45.328Z,100367.41
2022-09-06T07:35:14.055Z,100364.50
2022-09-06T07:37:42.449Z,100366.16
2022-09-06T07:40:13.260Z,100366.59
2022-09-06T07:42:41.442Z,100358.84
2022-09-06T07:45:10.753Z,100365.13
2022-09-06T07:53:30.542Z,100329.59
2022-09-06T07:56:01.904Z,100350.47
2022-09-06T07:58:30.646Z,100340.97
2022-09-06T08:01:17.822Z,100356.97
2022-09-06T08:03:47.279Z,100352.16
2022-09-06T08:06:15.954Z,100357.31
2022-09-06T08:08:59.762Z,100356.34
2022-09-06T08:11:31.348Z,100340.91
2022-09-06T08:14:01.232Z,100346.94
2022-09-06T08:16:31.436Z,100343.25
2022-09-06T08:19:00.862Z,100346.72
2022-09-06T08:21:32.155Z,100347.63
2022-09-06T08:24:01.799Z,100262.16
2022-09-06T08:26:32.831Z,100339.97
2022-09-06T08:29:02.310Z,100338.16
2022-09-06T08:31:32.099Z,100338.81
2022-09-06T08:34:01.752Z,100330.00
2022-09-06T08:36:30.820Z,100321.38
2022-09-06T08:38:58.918Z,100317.91
2022-09-06T08:41:29.613Z,100297.44
2022-09-06T08:46:58.923Z,100305.69
2022-09-06T08:49:30.616Z,100304.06
2022-09-06T08:52:25.661Z,100307.28
2022-09-06T08:55:03.481Z,100304.47
2022-09-06T08:57:42.175Z,100300.25
2022-09-06T09:00:13.514Z,100301.28
2022-09-06T09:02:45.975Z,100289.22
2022-09-06T09:05:27.689Z,100302.63
2022-09-06T09:08:05.589Z,100295.75
2022-09-06T09:10:42.157Z,100200.75
2022-09-06T09:13:26.727Z,100284.59
2022-09-06T09:15:57.185Z,100283.31
2022-09-06T09:18:29.122Z,100281.41
2022-09-06T09:20:58.911Z,100282.41
2022-09-06T09:23:27.506Z,100281.00
2022-09-06T09:26:01.368Z,100246.22
2022-09-06T09:28:30.017Z,100267.09
2022-09-06T09:30:59.672Z,100265.91
2022-09-06T09:33:31.039Z,100266.97
2022-09-06T09:36:02.549Z,100263.91
2022-09-06T09:38:32.876Z,100242.28
2022-09-06T09:41:04.817Z,100246.59
2022-09-06T09:43:34.473Z,100253.56
2022-09-06T09:46:16.653Z,100245.59
2022-09-06T09:49:01.069Z,100239.81
2022-09-06T09:51:30.670Z,100239.03
2022-09-06T09:54:00.119Z,100237.81
2022-09-06T09:56:43.622Z,100234.28
2022-09-06T09:59:22.959Z,100238.81
2022-09-06T10:01:56.471Z,100237.59
2022-09-06T10:04:47.973Z,100233.06
2022-09-06T10:07:18.835Z,100217.72
2022-09-06T10:09:48.946Z,100228.03
2022-09-06T10:12:20.203Z,100222.91
2022-09-06T10:14:50.094Z,100214.44
2022-09-06T10:17:30.889Z,100219.59
2022-09-06T10:20:03.680Z,100222.25
2022-09-06T10:22:33.273Z,100215.06
2022-09-06T10:25:34.604Z,100204.81
2022-09-06T10:28:30.375Z,100203.13
2022-09-06T10:31:27.174Z,100201.00
2022-09-06T10:34:05.979Z,100187.78
2022-09-06T10:36:37.318Z,100191.03
2022-09-06T10:39:12.012Z,100192.28
2022-09-06T10:41:52.564Z,100185.59
2022-09-06T10:44:38.187Z,100177.81
2022-09-06T10:47:12.046Z,100186.69
2022-09-06T10:49:45.715Z,100178.13
2022-09-06T10:52:18.599Z,100166.06
2022-09-06T10:54:47.442Z,100178.25
2022-09-06T11:00:14.541Z,100167.94
2022-09-06T11:05:46.695Z,100169.81
2022-09-06T11:11:20.790Z,100134.63
2022-09-06T11:13:49.199Z,100163.44
2022-09-06T11:16:24.132Z,100147.78
2022-09-06T11:18:58.075Z,100156.16
2022-09-06T11:21:51.819Z,100147.34
2022-09-06T11:24:34.583Z,100140.94
2022-09-06T11:27:07.417Z,100145.91
2022-09-06T11:29:40.982Z,100143.91
2022-09-06T11:32:33.167Z,100139.97
2022-09-06T11:35:04.645Z,100132.97
2022-09-06T11:37:37.476Z,100135.84
2022-09-06T11:40:29.229Z,100119.41
2022-09-06T11:43:19.186Z,100130.28
2022-09-06T11:45:50.103Z,100125.97
2022-09-06T11:49:02.959Z,100122.44
2022-09-06T11:51:37.471Z,100117.69
2022-09-06T11:54:22.188Z,100118.78
2022-09-06T11:56:59.189Z,100111.91
2022-09-06T11:59:37.542Z,100105.25
2022-09-06T12:02:07.905Z,100101.88
2022-09-06T12:05:19.522Z,100116.47
2022-09-06T12:08:25.868Z,100107.78
2022-09-06T12:11:05.476Z,100098.38
2022-09-06T12:13:41.457Z,100092.75
2022-09-06T12:16:10.716Z,100090.38
2022-09-06T12:18:57.272Z,100086.50
2022-09-06T12:21:43.713Z,100089.50
2022-09-06T12:24:53.317Z,100083.06
2022-09-06T12:27:23.697Z,100074.16
2022-09-06T12:29:56.269Z,100085.97
2022-09-06T12:32:28.797Z,100079.25
2022-09-06T12:37:52.380Z,100071.78
2022-09-06T12:40:22.147Z,100065.72
2022-09-06T12:42:52.906Z,100069.75
2022-09-06T12:45:27.194Z,100049.41
2022-09-06T12:48:06.132Z,100056.75
2022-09-06T12:50:34.375Z,100058.28
2022-09-06T12:53:04.905Z,100055.28
2022-09-06T12:55:35.369Z,100049.75
2022-09-06T12:58:06.369Z,100034.03
2022-09-06T13:00:40.688Z,100049.84
2022-09-06T13:03:27.033Z,100040.41
2022-09-06T13:05:56.769Z,100039.66
2022-09-06T13:08:30.378Z,100030.06
2022-09-06T13:10:58.940Z,100031.69
2022-09-06T13:13:28.919Z,100024.53
2022-09-06T13:15:57.613Z,100034.69
2022-09-06T13:18:33.872Z,100035.22
2022-09-06T13:21:04.339Z,100034.75
2022-09-06T13:23:42.256Z,100030.97
2022-09-06T13:26:10.661Z,100025.75
2022-09-06T13:28:40.717Z,100019.72
2022-09-06T13:31:11.045Z,100017.31
2022-09-06T13:33:39.606Z,100022.78
2022-09-06T13:36:24.623Z,100016.44
2022-09-06T13:38:52.992Z,100016.38
2022-09-06T13:41:44.572Z,100018.03
2022-09-06T13:44:22.247Z,100015.00
2022-09-06T13:46:55.201Z,100010.25
2022-09-06T13:49:24.663Z,100002.34
2022-09-06T13:51:54.603Z,100007.31
2022-09-06T13:54:24.154Z,99996.16
2022-09-06T13:56:52.134Z,100004.84
2022-09-06T13:59:21.859Z,99993.09
2022-09-06T14:01:58.339Z,99997.81
2022-09-06T14:04:26.986Z,99984.50
2022-09-06T14:06:55.300Z,99994.31
2022-09-06T14:09:23.413Z,99983.38
2022-09-06T14:11:51.609Z,99997.13
2022-09-06T14:14:21.421Z,99992.25
2022-09-06T14:16:49.612Z,99987.47
2022-09-06T14:19:17.869Z,99985.81
2022-09-06T14:21:46.223Z,99989.91
2022-09-06T14:24:14.393Z,99977.56
2022-09-06T14:26:42.302Z,99984.19
2022-09-06T14:29:10.365Z,99991.41
2022-09-06T14:31:40.099Z,99988.34
2022-09-06T14:34:08.178Z,99989.72
2022-09-06T14:36:36.331Z,99985.25
2022-09-06T14:39:05.548Z,99987.84
2022-09-06T14:41:34.189Z,99988.25
2022-09-06T14:44:02.894Z,99978.41
2022-09-06T14:46:30.971Z,99983.50
2022-09-06T14:49:02.792Z,99983.66
2022-09-06T14:51:31.910Z,99982.09
2022-09-06T14:54:02.778Z,99973.09
2022-09-06T14:56:31.558Z,99981.28
2022-09-06T14:59:00.431Z,99984.13
2022-09-06T15:01:34.163Z,99981.00
2022-09-06T15:04:07.984Z,99955.81
2022-09-06T15:06:39.984Z,99972.72
2022-09-06T15:09:11.506Z,99972.91
2022-09-06T15:11:41.554Z,99979.53
2022-09-06T15:14:13.845Z,99969.63
2022-09-06T15:16:42.101Z,99973.94
2022-09-06T15:19:12.006Z,99973.56
2022-09-06T15:21:40.430Z,99973.56
2022-09-06T15:24:11.739Z,99954.91
2022-09-06T15:26:41.193Z,99971.47
2022-09-06T15:29:09.899Z,99981.03
2022-09-06T15:31:38.599Z,99979.44
2022-09-06T15:34:07.450Z,99976.97
2022-09-06T15:36:37.308Z,99981.28
2022-09-06T15:39:06.567Z,99981.72
2022-09-06T15:41:36.828Z,99981.47
2022-09-06T15:44:09.564Z,99982.94
2022-09-06T15:46:45.635Z,99985.41
2022-09-06T15:49:15.951Z,99981.09
2022-09-06T15:51:46.107Z,99981.09
2022-09-06T15:54:16.092Z,99975.69
2022-09-06T15:56:43.755Z,99966.25
2022-09-06T15:59:12.878Z,99974.47
2022-09-06T16:01:41.243Z,99974.47
2022-09-06T16:04:09.443Z,99971.81
2022-09-06T16:06:40.253Z,99968.75
2022-09-06T16:09:11.241Z,99962.16
2022-09-06T16:11:39.365Z,99971.00
2022-09-06T16:14:09.192Z,99965.84
2022-09-06T16:16:37.709Z,99955.75
2022-09-06T16:19:05.948Z,99944.84
2022-09-06T16:21:35.840Z,99958.06
2022-09-06T16:24:06.605Z,99956.00
2022-09-06T16:26:38.070Z,99968.75
2022-09-06T16:29:07.713Z,99966.69
2022-09-06T16:31:40.031Z,99972.66
2022-09-06T16:34:09.098Z,99969.38
2022-09-06T16:36:37.403Z,99968.34
2022-09-06T16:39:06.304Z,99953.72
2022-09-06T16:41:40.468Z,99968.94
2022-09-06T16:44:09.364Z,99962.16
2022-09-06T16:46:40.232Z,99961.53
2022-09-06T16:49:08.418Z,99970.59
2022-09-06T16:51:37.051Z,99972.09
2022-09-06T16:54:05.395Z,99983.78
2022-09-06T16:56:36.390Z,99975.16
2022-09-06T16:59:06.568Z,99982.97
2022-09-06T17:01:36.315Z,99986.03
2022-09-06T17:04:05.803Z,99980.50
2022-09-06T17:06:38.224Z,99991.41
2022-09-06T17:09:06.537Z,99991.38
2022-09-06T17:11:37.292Z,99981.13
2022-09-06T17:14:05.818Z,99999.41
2022-09-06T17:16:51.259Z,100002.69
2022-09-06T17:19:19.870Z,99999.84
2022-09-06T17:21:48.318Z,100002.91
2022-09-06T17:24:16.637Z,100004.75
2022-09-06T17:26:47.503Z,100002.06
2022-09-06T17:29:15.600Z,100012.38
2022-09-06T17:31:43.645Z,100012.56
2022-09-06T17:34:11.728Z,100012.34
2022-09-06T17:36:39.794Z,100018.09
2022-09-06T17:39:10.432Z,100025.06
2022-09-06T17:41:40.138Z,100019.94
2022-09-06T17:44:13.203Z,100023.44
2022-09-06T17:46:57.113Z,100026.91
2022-09-06T17:49:31.650Z,100035.72
2022-09-06T17:51:59.648Z,100030.59
2022-09-06T17:54:27.952Z,100028.31
2022-09-06T17:56:55.965Z,100026.59
2022-09-06T17:59:31.521Z,100040.56
2022-09-06T18:02:02.468Z,100044.69
2022-09-06T18:04:31.073Z,100024.09
2022-09-06T18:06:59.238Z,100055.56
2022-09-06T18:09:27.448Z,100048.41
2022-09-06T18:11:55.520Z,100051.66
2022-09-06T18:14:23.816Z,100063.97
2022-09-06T18:16:53.694Z,100062.16
2022-09-06T18:19:24.130Z,100065.03
2022-09-06T18:21:52.159Z,100063.72
2022-09-06T18:24:20.391Z,100075.88
2022-09-06T18:26:50.801Z,100076.72
2022-09-06T18:29:19.679Z,100072.56
2022-09-06T18:31:48.280Z,100087.13
2022-09-06T18:34:18.434Z,100079.97
2022-09-06T18:36:48.225Z,100083.03
2022-09-06T18:39:17.310Z,100088.44
2022-09-06T18:42:07.306Z,100084.72
2022-09-06T18:44:38.870Z,100092.44
2022-09-06T18:47:09.725Z,100097.56
2022-09-06T18:49:43.958Z,100092.25
2022-09-06T18:52:12.743Z,100096.25
2022-09-06T18:54:41.093Z,100086.25
2022-09-06T18:57:10.677Z,100097.63
2022-09-06T18:59:39.149Z,100097.19
2022-09-06T19:02:07.969Z,100101.06
2022-09-06T19:04:36.347Z,100106.84
2022-09-06T19:07:06.309Z,100099.59
2022-09-06T19:09:34.645Z,100079.31
2022-09-06T19:12:05.104Z,100106.25
2022-09-06T19:14:34.111Z,100098.66
2022-09-06T19:17:03.219Z,100094.34
2022-09-06T19:19:31.630Z,100082.44
2022-09-06T19:22:00.050Z,100087.06
2022-09-06T19:24:29.829Z,100110.84
2022-09-06T19:27:00.755Z,100113.75
2022-09-06T19:29:29.116Z,100112.41
2022-09-06T19:31:57.626Z,100114.91
2022-09-06T19:34:26.397Z,100095.88
2022-09-06T19:36:55.645Z,100108.00
2022-09-06T19:39:25.119Z,100117.91
2022-09-06T19:41:54.759Z,100122.06
2022-09-06T19:44:22.897Z,100116.56
2022-09-06T19:46:51.260Z,100109.19
2022-09-06T19:49:20.778Z,100115.00
2022-09-06T19:51:51.498Z,100113.81
2022-09-06T19:54:20.839Z,100110.19
2022-09-06T19:56:49.006Z,100082.63
2022-09-06T19:59:19.171Z,100108.13
2022-09-06T20:01:47.827Z,100111.38
2022-09-06T20:04:16.850Z,100108.44
2022-09-06T20:06:45.277Z,100117.19
2022-09-06T20:09:15.981Z,100105.72
2022-09-06T20:11:44.590Z,100106.97
2022-09-06T20:14:13.873Z,100107.56
2022-09-06T20:16:43.748Z,100112.00
2022-09-06T20:19:14.594Z,100092.91
2022-09-06T20:21:43.028Z,100118.41
2022-09-06T20:24:11.129Z,100019.19
2022-09-06T20:26:40.435Z,100121.75
2022-09-06T20:29:09.138Z,100125.84
2022-09-06T20:31:38.499Z,100126.00
2022-09-06T20:34:08.606Z,100115.66
2022-09-06T20:36:37.540Z,100143.81
2022-09-06T20:39:05.855Z,100135.38
2022-09-06T20:41:33.930Z,100135.66
2022-09-06T20:44:02.728Z,100134.53
2022-09-06T20:46:33.060Z,100129.44
2022-09-06T20:49:04.522Z,100127.72
2022-09-06T20:51:36.232Z,100126.56
2022-09-06T20:54:05.956Z,100124.25
2022-09-06T20:56:36.017Z,100138.03
2022-09-06T20:59:05.780Z,100133.88
2022-09-06T21:01:36.366Z,100141.84
2022-09-06T21:04:07.771Z,100129.56
2022-09-06T21:06:39.495Z,100138.88
2022-09-06T21:09:09.483Z,100135.41
2022-09-06T21:11:38.209Z,100138.75
2022-09-06T21:14:07.597Z,100131.63
2022-09-06T21:16:36.878Z,100138.56
2022-09-06T21:19:08.163Z,100143.03
2022-09-06T21:21:38.715Z,100140.72
2022-09-06T21:24:08.673Z,100140.91
2022-09-06T21:26:37.126Z,100145.53
2022-09-06T21:29:06.003Z,100141.09
2022-09-06T21:31:36.295Z,100148.38
2022-09-06T21:34:06.855Z,100146.91
2022-09-06T21:36:36.260Z,100162.00
2022-09-06T21:39:07.187Z,100157.19
2022-09-06T21:41:35.631Z,100154.84
2022-09-06T21:44:05.143Z,100143.88
2022-09-06T21:46:35.217Z,100131.34
2022-09-06T21:49:05.396Z,100150.88
2022-09-06T21:51:33.839Z,100161.50
2022-09-06T21:54:04.480Z,100163.81
2022-09-06T21:56:36.008Z,100159.00
2022-09-06T21:59:05.919Z,100160.00
2022-09-06T22:01:37.331Z,100167.78
2022-09-06T22:04:06.166Z,100169.09
2022-09-06T22:06:35.990Z,100172.75
2022-09-06T22:09:07.806Z,100170.09
2022-09-06T22:11:39.679Z,100162.97
2022-09-06T22:14:09.291Z,100163.78
2022-09-06T22:16:39.213Z,100178.53
2022-09-06T22:19:09.272Z,100179.69
2022-09-06T22:21:38.744Z,100166.81
2022-09-06T22:24:09.444Z,100182.84
2022-09-06T22:26:40.261Z,100173.38
2022-09-06T22:29:10.114Z,100192.28
2022-09-06T22:31:38.558Z,100184.28
2022-09-06T22:34:07.140Z,100194.88
2022-09-06T22:36:36.299Z,100192.94
2022-09-06T22:39:05.205Z,100196.59
2022-09-06T22:41:34.275Z,100178.31
2022-09-06T22:44:04.933Z,100184.13
2022-09-06T22:46:34.043Z,100188.50
2022-09-06T22:49:04.165Z,100191.47
2022-09-06T22:51:33.489Z,100189.59
2022-09-06T22:54:02.267Z,100185.44
2022-09-06T22:56:30.365Z,100189.53
2022-09-06T22:59:00.082Z,100190.91
2022-09-06T23:01:30.460Z,100187.06
2022-09-06T23:03:58.579Z,100184.91
2022-09-06T23:06:27.315Z,100195.81
2022-09-06T23:08:55.446Z,100196.66
2022-09-06T23:11:23.500Z,100198.13
2022-09-06T23:13:56.802Z,100199.09
2022-09-06T23:16:25.775Z,100201.50
2022-09-06T23:18:56.187Z,100197.81
2022-09-06T23:21:25.836Z,100190.56
2022-09-06T23:23:56.789Z,100199.94
2022-09-06T23:26:27.195Z,100199.03
2022-09-06T23:28:56.880Z,100174.81
2022-09-06T23:31:26.657Z,100200.31
2022-09-06T23:33:58.223Z,100189.88
2022-09-06T23:36:27.115Z,100192.09
2022-09-06T23:38:55.911Z,100192.91
2022-09-06T23:41:24.270Z,100193.25
2022-09-06T23:43:52.726Z,100192.78
2022-09-06T23:46:21.297Z,100191.81
2022-09-06T23:48:49.539Z,100190.75
2022-09-06T23:51:19.464Z,100196.38
2022-09-06T23:53:47.793Z,100192.66
2022-09-06T23:56:15.985Z,100194.66
2022-09-06T23:58:44.350Z,100194.63
